createdAt,value
2022-11-15T00:01:33.939Z,66.00
2022-11-15T00:04:20.989Z,54.20
2022-11-15T00:07:07.740Z,51.30
2022-11-15T00:09:54.515Z,51.20
2022-11-15T00:12:40.925Z,55.40
2022-11-15T00:15:27.816Z,71.40
2022-11-15T00:18:15.507Z,47.70
2022-11-15T00:21:08.471Z,51.60
2022-11-15T00:23:55.358Z,47.30
2022-11-15T00:26:41.990Z,43.60
2022-11-15T00:29:28.404Z,50.40
2022-11-15T00:32:14.840Z,69.10
2022-11-15T00:35:01.675Z,63.80
2022-11-15T00:37:48.849Z,52.50
2022-11-15T00:40:35.735Z,62.10
2022-11-15T00:43:22.682Z,59.00
2022-11-15T00:46:10.550Z,55.60
2022-11-15T00:48:57.310Z,58.70
2022-11-15T00:51:43.901Z,54.70
2022-11-15T00:54:30.417Z,48.10
2022-11-15T00:57:16.901Z,66.00
2022-11-15T01:00:04.191Z,59.60
2022-11-15T01:02:51.169Z,49.10
2022-11-15T01:05:39.167Z,58.80
2022-11-15T01:08:26.171Z,64.80
2022-11-15T01:11:13.400Z,74.00
2022-11-15T01:13:59.998Z,66.30
2022-11-15T01:16:46.648Z,48.30
2022-11-15T01:19:33.704Z,70.70
2022-11-15T01:22:20.199Z,67.10
2022-11-15T01:25:06.940Z,62.50
2022-11-15T01:27:53.839Z,50.30
2022-11-15T01:30:40.328Z,45.30
2022-11-15T01:33:28.091Z,55.00
2022-11-15T01:36:22.672Z,59.40
2022-11-15T01:39:09.134Z,62.00
2022-11-15T01:41:56.742Z,62.70
2022-11-15T01:44:52.772Z,53.50
2022-11-15T01:50:33.456Z,53.50
2022-11-15T01:53:23.419Z,77.90
2022-11-15T01:56:15.019Z,41.50
2022-11-15T01:59:05.493Z,59.90
2022-11-15T02:01:52.139Z,67.10
2022-11-15T02:04:45.804Z,63.00
2022-11-15T02:07:35.328Z,49.20
2022-11-15T02:10:24.890Z,43.80
2022-11-15T02:13:11.732Z,59.90
2022-11-15T02:16:25.469Z,56.70
2022-11-15T02:19:14.998Z,81.20
2022-11-15T02:22:25.714Z,57.40
2022-11-15T02:25:39.052Z,58.90
2022-11-15T02:28:25.829Z,69.60
2022-11-15T02:31:39.299Z,39.70
2022-11-15T02:34:42.391Z,37.80
2022-11-15T02:37:43.874Z,43.10
2022-11-15T02:40:47.477Z,60.50
2022-11-15T02:43:59.203Z,46.40
2022-11-15T02:47:13.703Z,40.40
2022-11-15T02:50:06.188Z,43.70
2022-11-15T02:52:53.296Z,40.70
2022-11-15T02:55:44.752Z,47.00
2022-11-15T02:58:36.972Z,50.90
2022-11-15T03:01:41.789Z,48.00
2022-11-15T03:04:44.950Z,38.30
2022-11-15T03:07:41.119Z,51.10
2022-11-15T03:10:41.425Z,42.10
2022-11-15T03:13:56.948Z,57.50
2022-11-15T03:16:56.211Z,55.80
2022-11-15T03:19:52.837Z,59.10
2022-11-15T03:22:44.615Z,53.70
2022-11-15T03:25:34.275Z,62.50
2022-11-15T03:28:30.963Z,55.20
2022-11-15T03:31:43.428Z,57.00
2022-11-15T03:34:43.620Z,47.40
2022-11-15T03:38:07.820Z,49.20
2022-11-15T03:41:02.646Z,49.20
2022-11-15T03:44:10.967Z,66.80
2022-11-15T03:47:03.001Z,48.90
2022-11-15T03:49:56.692Z,45.90
2022-11-15T03:52:45.740Z,45.70
2022-11-15T03:55:33.554Z,41.60
2022-11-15T03:58:20.436Z,45.50
2022-11-15T04:01:07.404Z,47.70
2022-11-15T04:03:54.608Z,41.80
2022-11-15T04:06:41.396Z,44.10
2022-11-15T04:09:27.996Z,35.90
2022-11-15T04:12:31.757Z,33.50
2022-11-15T04:15:23.682Z,33.30
2022-11-15T04:18:10.358Z,37.50
2022-11-15T04:21:15.325Z,35.60
2022-11-15T04:24:13.840Z,39.30
2022-11-15T04:27:00.926Z,34.30
2022-11-15T04:29:47.284Z,35.30
2022-11-15T04:32:34.100Z,34.20
2022-11-15T04:35:20.664Z,37.50
2022-11-15T04:38:09.465Z,38.00
2022-11-15T04:40:56.317Z,33.90
2022-11-15T04:43:43.097Z,33.10
2022-11-15T04:46:29.896Z,34.80
2022-11-15T04:49:16.448Z,31.40
2022-11-15T04:52:03.295Z,33.40
2022-11-15T04:54:50.057Z,33.00
2022-11-15T04:57:37.908Z,35.00
2022-11-15T05:00:24.809Z,30.90
2022-11-15T05:03:30.128Z,33.30
2022-11-15T05:06:17.256Z,33.80
2022-11-15T05:09:04.476Z,38.60
2022-11-15T05:11:51.491Z,32.50
2022-11-15T05:14:38.133Z,32.30
2022-11-15T05:17:24.738Z,43.00
2022-11-15T05:20:12.058Z,61.50
2022-11-15T05:22:58.968Z,48.10
2022-11-15T05:25:45.776Z,43.70
2022-11-15T05:28:33.681Z,42.80
2022-11-15T05:31:20.594Z,32.20
2022-11-15T05:34:07.372Z,46.50
2022-11-15T05:36:54.495Z,45.20
2022-11-15T05:39:41.230Z,48.80
2022-11-15T05:42:28.860Z,43.10
2022-11-15T05:45:15.933Z,34.40
2022-11-15T05:48:07.722Z,42.80
2022-11-15T05:50:54.740Z,51.10
2022-11-15T05:53:41.681Z,45.10
2022-11-15T05:56:29.437Z,47.50
2022-11-15T05:59:17.089Z,53.20
2022-11-15T06:02:04.132Z,53.20
2022-11-15T06:04:50.928Z,52.70
2022-11-15T06:07:37.875Z,72.20
2022-11-15T06:10:24.885Z,79.90
2022-11-15T06:13:11.464Z,59.30
2022-11-15T06:15:58.282Z,48.40
2022-11-15T06:18:45.352Z,58.00
2022-11-15T06:21:32.024Z,58.30
2022-11-15T06:24:18.580Z,45.20
2022-11-15T06:27:05.150Z,63.40
2022-11-15T06:29:51.946Z,62.50
2022-11-15T06:32:38.664Z,38.20
2022-11-15T06:35:25.263Z,57.60
2022-11-15T06:38:12.643Z,51.20
2022-11-15T06:41:08.269Z,68.50
2022-11-15T06:43:55.117Z,46.70
2022-11-15T06:46:41.793Z,45.40
2022-11-15T06:49:28.892Z,56.50
2022-11-15T06:52:15.484Z,43.20
2022-11-15T06:55:02.304Z,40.70
2022-11-15T06:57:50.802Z,54.00
2022-11-15T07:00:38.577Z,63.80
2022-11-15T07:03:25.091Z,48.80
2022-11-15T07:06:11.824Z,59.20
2022-11-15T07:08:58.471Z,54.20
2022-11-15T07:11:45.492Z,58.90
2022-11-15T07:14:32.148Z,64.60
2022-11-15T07:17:18.742Z,55.50
2022-11-15T07:20:06.280Z,49.60
2022-11-15T07:23:00.907Z,49.10
2022-11-15T07:25:47.693Z,40.70
2022-11-15T07:28:34.428Z,58.20
2022-11-15T07:31:21.036Z,51.50
2022-11-15T07:34:07.515Z,45.60
2022-11-15T07:36:54.120Z,40.00
2022-11-15T07:39:40.579Z,50.40
2022-11-15T07:42:45.773Z,50.60
2022-11-15T07:45:34.483Z,40.10
2022-11-15T07:48:21.001Z,47.40
2022-11-15T07:51:13.756Z,52.80
2022-11-15T07:54:00.672Z,44.20
2022-11-15T07:56:47.287Z,43.90
2022-11-15T07:59:35.992Z,48.10
2022-11-15T08:02:27.631Z,47.10
2022-11-15T08:05:16.790Z,45.70
2022-11-15T08:08:03.943Z,49.80
2022-11-15T08:10:50.918Z,51.60
2022-11-15T08:13:37.615Z,43.60
2022-11-15T08:16:24.445Z,43.50
2022-11-15T08:19:11.132Z,46.50
2022-11-15T08:21:58.168Z,41.60
2022-11-15T08:24:45.673Z,41.20
2022-11-15T08:27:32.145Z,42.00
2022-11-15T08:30:19.352Z,48.10
2022-11-15T08:33:06.238Z,45.90
2022-11-15T08:35:53.120Z,59.30
2022-11-15T08:38:40.060Z,53.20
2022-11-15T08:41:33.096Z,52.00
2022-11-15T08:44:19.966Z,51.10
2022-11-15T08:47:06.639Z,44.40
2022-11-15T08:49:53.171Z,52.60
2022-11-15T08:52:40.056Z,52.20
2022-11-15T08:55:26.595Z,46.30
2022-11-15T08:58:13.520Z,51.50
2022-11-15T09:01:00.144Z,44.20
2022-11-15T09:03:46.572Z,48.70
2022-11-15T09:06:33.386Z,49.70
2022-11-15T09:09:20.251Z,52.80
2022-11-15T09:12:07.916Z,47.80
2022-11-15T09:14:54.365Z,48.30
2022-11-15T09:17:41.689Z,48.80
2022-11-15T09:20:28.277Z,51.80
2022-11-15T09:23:14.948Z,43.10
2022-11-15T09:26:03.817Z,43.50
2022-11-15T09:28:50.474Z,38.50
2022-11-15T09:31:37.422Z,40.10
2022-11-15T09:34:24.205Z,37.80
2022-11-15T09:37:10.894Z,42.70
2022-11-15T09:39:57.684Z,42.70
2022-11-15T09:43:06.222Z,44.20
2022-11-15T09:46:14.287Z,38.40
2022-11-15T09:49:05.287Z,37.50
2022-11-15T09:51:48.593Z,39.90
2022-11-15T09:54:53.756Z,42.10
2022-11-15T09:57:41.540Z,40.10
2022-11-15T10:00:43.992Z,39.00
2022-11-15T10:03:14.724Z,38.20
2022-11-15T10:05:56.354Z,36.80
2022-11-15T10:08:46.083Z,41.00
2022-11-15T10:11:36.776Z,41.20
2022-11-15T10:14:22.257Z,38.90
2022-11-15T10:17:01.416Z,35.70
2022-11-15T10:19:48.698Z,39.70
2022-11-15T10:22:16.926Z,40.00
2022-11-15T10:24:46.911Z,43.80
2022-11-15T10:27:18.519Z,48.00
2022-11-15T10:29:48.911Z,42.80
2022-11-15T10:32:19.699Z,43.30
2022-11-15T10:34:50.178Z,41.70
2022-11-15T10:37:30.711Z,39.00
2022-11-15T10:40:25.250Z,41.80
2022-11-15T10:43:12.039Z,38.00
2022-11-15T10:45:40.447Z,39.00
2022-11-15T10:48:14.452Z,40.80
2022-11-15T10:50:45.227Z,38.00
2022-11-15T10:53:19.090Z,39.40
2022-11-15T10:55:53.647Z,41.00
2022-11-15T10:58:58.368Z,39.30
2022-11-15T11:01:30.589Z,35.10
2022-11-15T11:04:06.121Z,38.20
2022-11-15T11:06:57.462Z,40.70
2022-11-15T11:09:37.643Z,44.40
2022-11-15T11:12:10.743Z,43.60
2022-11-15T11:14:40.505Z,37.00
2022-11-15T11:17:23.048Z,35.00
2022-11-15T11:19:58.081Z,35.30
2022-11-15T11:25:15.872Z,34.20
2022-11-15T11:28:06.936Z,34.80
2022-11-15T11:30:50.316Z,36.00
2022-11-15T11:33:32.799Z,35.00
2022-11-15T11:36:19.491Z,35.40
2022-11-15T11:38:59.169Z,35.70
2022-11-15T11:42:00.968Z,37.00
2022-11-15T11:44:38.121Z,37.50
2022-11-15T11:47:23.881Z,39.10
2022-11-15T11:50:00.930Z,37.70
2022-11-15T11:52:53.671Z,40.60
2022-11-15T11:55:32.039Z,35.60
2022-11-15T11:58:22.117Z,38.80
2022-11-15T12:01:17.094Z,37.50
2022-11-15T12:03:52.001Z,39.80
2022-11-15T12:06:50.279Z,38.20
2022-11-15T12:09:24.661Z,43.50
2022-11-15T12:12:19.567Z,43.10
2022-11-15T12:14:53.012Z,41.80
2022-11-15T12:17:25.515Z,43.80
2022-11-15T12:19:58.597Z,39.10
2022-11-15T12:22:40.046Z,41.10
2022-11-15T12:25:17.016Z,41.50
2022-11-15T12:28:17.947Z,49.30
2022-11-15T12:30:54.622Z,39.00
2022-11-15T12:33:31.736Z,42.90
2022-11-15T12:36:13.811Z,41.60
2022-11-15T12:39:05.430Z,42.30
2022-11-15T12:41:35.700Z,43.50
2022-11-15T12:44:05.503Z,41.30
2022-11-15T12:46:34.211Z,45.30
2022-11-15T12:49:08.823Z,44.10
2022-11-15T12:51:43.092Z,53.90
2022-11-15T12:54:23.577Z,49.70
2022-11-15T12:57:21.070Z,42.30
2022-11-15T12:59:56.138Z,67.40
2022-11-15T13:02:36.571Z,67.10
2022-11-15T13:05:16.733Z,46.90
2022-11-15T13:07:45.530Z,44.40
2022-11-15T13:10:13.720Z,41.50
2022-11-15T13:12:44.922Z,45.70
2022-11-15T13:15:13.047Z,43.40
2022-11-15T13:17:45.606Z,46.80
2022-11-15T13:20:16.632Z,45.00
2022-11-15T13:22:51.969Z,42.20
2022-11-15T13:25:24.676Z,43.80
2022-11-15T13:27:55.344Z,39.70
2022-11-15T13:30:27.348Z,40.30
2022-11-15T13:32:56.466Z,41.80
2022-11-15T13:35:27.816Z,41.50
2022-11-15T13:37:57.435Z,49.30
2022-11-15T13:40:31.187Z,41.60
2022-11-15T13:42:59.545Z,39.40
2022-11-15T13:45:27.955Z,41.70
2022-11-15T13:47:58.112Z,41.60
2022-11-15T13:50:32.008Z,44.70
2022-11-15T13:53:04.812Z,49.10
2022-11-15T13:55:34.084Z,43.80
2022-11-15T13:58:07.268Z,46.20
2022-11-15T14:00:39.682Z,50.20
2022-11-15T14:03:15.252Z,46.30
2022-11-15T14:05:43.814Z,45.10
2022-11-15T14:08:21.074Z,43.90
2022-11-15T14:10:49.198Z,39.50
2022-11-15T14:13:32.280Z,40.30
2022-11-15T14:16:16.627Z,44.30
2022-11-15T14:18:49.351Z,38.40
2022-11-15T14:21:18.436Z,42.20
2022-11-15T14:23:47.078Z,42.30
2022-11-15T14:26:33.561Z,43.50
2022-11-15T14:29:27.569Z,45.90
2022-11-15T14:32:15.585Z,46.10
2022-11-15T14:34:44.422Z,47.50
2022-11-15T14:37:35.669Z,42.70
2022-11-15T14:40:06.562Z,46.90
2022-11-15T14:42:34.682Z,48.10
2022-11-15T14:45:02.848Z,52.90
2022-11-15T14:47:30.960Z,49.10
2022-11-15T14:49:59.089Z,55.80
2022-11-15T14:52:35.235Z,56.50
2022-11-15T14:55:11.280Z,51.80
2022-11-15T14:57:39.428Z,52.30
2022-11-15T15:00:09.561Z,46.90
2022-11-15T15:02:42.842Z,48.90
2022-11-15T15:05:34.399Z,49.70
2022-11-15T15:08:03.209Z,43.90
2022-11-15T15:10:49.350Z,45.40
2022-11-15T15:13:20.595Z,41.80
2022-11-15T15:15:50.253Z,42.50
2022-11-15T15:18:19.147Z,53.60
2022-11-15T15:21:22.887Z,54.10
2022-11-15T15:23:52.041Z,56.00
2022-11-15T15:26:20.158Z,52.40
2022-11-15T15:28:49.694Z,48.00
2022-11-15T15:31:18.240Z,50.90
2022-11-15T15:33:46.511Z,48.00
2022-11-15T15:36:18.567Z,50.80
2022-11-15T15:38:47.724Z,53.80
2022-11-15T15:41:17.212Z,54.20
2022-11-15T15:43:45.676Z,58.20
2022-11-15T15:46:19.504Z,56.00
2022-11-15T15:48:47.913Z,53.10
2022-11-15T15:51:20.351Z,52.30
2022-11-15T15:53:49.489Z,54.40
2022-11-15T15:56:17.656Z,56.60
2022-11-15T15:58:45.758Z,56.20
2022-11-15T16:01:14.415Z,46.30
2022-11-15T16:03:42.620Z,42.60
2022-11-15T16:06:35.353Z,49.80
2022-11-15T16:09:20.688Z,49.80
2022-11-15T16:11:49.094Z,50.70
2022-11-15T16:14:17.281Z,54.00
2022-11-15T16:16:45.391Z,62.20
2022-11-15T16:19:13.594Z,68.90
2022-11-15T16:21:41.834Z,105.30
2022-11-15T16:24:10.257Z,142.10
2022-11-15T16:26:38.985Z,116.00
2022-11-15T16:29:10.264Z,97.10
2022-11-15T16:31:38.572Z,117.40
2022-11-15T16:34:07.459Z,137.30
2022-11-15T16:36:36.557Z,135.80
2022-11-15T16:39:05.128Z,135.00
2022-11-15T16:41:33.674Z,174.10
2022-11-15T16:44:01.925Z,192.10
2022-11-15T16:46:30.191Z,198.00
2022-11-15T16:48:58.510Z,216.40
2022-11-15T16:51:26.821Z,211.90
2022-11-15T16:53:55.071Z,197.30
2022-11-15T16:56:29.068Z,194.10
2022-11-15T16:58:58.969Z,181.90
2022-11-15T17:01:32.546Z,172.60
2022-11-15T17:04:12.548Z,168.70
2022-11-15T17:06:42.062Z,166.90
2022-11-15T17:09:24.682Z,177.30
2022-11-15T17:11:53.528Z,181.00
2022-11-15T17:14:21.786Z,175.60
2022-11-15T17:16:49.959Z,174.50
2022-11-15T17:19:21.119Z,160.40
2022-11-15T17:21:49.743Z,153.50
2022-11-15T17:24:18.112Z,146.00
2022-11-15T17:26:46.218Z,132.70
2022-11-15T17:29:14.392Z,99.20
2022-11-15T17:31:42.522Z,98.00
2022-11-15T17:34:10.703Z,152.90
2022-11-15T17:36:38.885Z,151.50
2022-11-15T17:39:06.986Z,148.60
2022-11-15T17:41:35.255Z,137.00
2022-11-15T17:44:03.780Z,133.90
2022-11-15T17:46:33.525Z,102.70
2022-11-15T17:49:01.916Z,104.40
2022-11-15T17:51:30.089Z,123.80
2022-11-15T17:53:58.604Z,123.70
2022-11-15T17:56:28.451Z,149.20
2022-11-15T17:58:59.042Z,153.00
2022-11-15T18:01:32.777Z,126.70
2022-11-15T18:04:03.726Z,129.30
2022-11-15T18:06:34.160Z,129.80
2022-11-15T18:09:03.643Z,136.20
2022-11-15T18:11:35.176Z,140.00
2022-11-15T18:14:06.312Z,141.60
2022-11-15T18:16:37.073Z,144.30
2022-11-15T18:19:09.026Z,139.80
2022-11-15T18:21:56.167Z,140.70
2022-11-15T18:24:27.060Z,137.40
2022-11-15T18:26:55.757Z,142.20
2022-11-15T18:29:26.801Z,154.70
2022-11-15T18:31:55.892Z,147.30
2022-11-15T18:34:31.875Z,145.90
2022-11-15T18:37:02.761Z,134.30
2022-11-15T18:39:31.138Z,137.00
2022-11-15T18:41:59.428Z,143.00
2022-11-15T18:44:31.080Z,136.80
2022-11-15T18:46:59.230Z,144.70
2022-11-15T18:49:27.363Z,145.70
2022-11-15T18:51:56.945Z,137.30
2022-11-15T18:54:30.630Z,140.60
2022-11-15T18:57:00.164Z,148.30
2022-11-15T18:59:29.293Z,161.20
2022-11-15T19:01:57.389Z,158.60
2022-11-15T19:04:25.606Z,154.00
2022-11-15T19:06:54.098Z,154.10
2022-11-15T19:09:22.374Z,163.80
2022-11-15T19:11:51.648Z,158.90
2022-11-15T19:14:24.245Z,160.80
2022-11-15T19:16:52.993Z,162.90
2022-11-15T19:19:24.575Z,157.70
2022-11-15T19:21:53.247Z,149.90
2022-11-15T19:24:21.414Z,139.00
2022-11-15T19:26:49.554Z,129.90
2022-11-15T19:29:18.297Z,127.10
2022-11-15T19:31:48.734Z,126.90
2022-11-15T19:34:17.914Z,126.40
2022-11-15T19:36:46.542Z,128.80
2022-11-15T19:39:18.063Z,118.70
2022-11-15T19:41:47.543Z,124.30
2022-11-15T19:44:16.162Z,124.30
2022-11-15T19:46:44.467Z,116.50
2022-11-15T19:49:13.085Z,119.00
2022-11-15T19:51:47.196Z,116.80
2022-11-15T19:54:17.160Z,116.30
2022-11-15T19:56:45.482Z,113.80
2022-11-15T19:59:14.299Z,117.20
2022-11-15T20:01:42.687Z,130.20
2022-11-15T20:04:10.951Z,121.50
2022-11-15T20:06:42.074Z,130.00
2022-11-15T20:09:15.826Z,126.00
2022-11-15T20:11:44.868Z,114.10
2022-11-15T20:14:13.411Z,102.00
2022-11-15T20:16:41.856Z,111.00
2022-11-15T20:19:12.422Z,118.40
2022-11-15T20:21:41.016Z,113.60
2022-11-15T20:24:10.040Z,112.40
2022-11-15T20:26:39.370Z,115.40
2022-11-15T20:29:08.501Z,120.00
2022-11-15T20:31:37.275Z,128.60
2022-11-15T20:34:05.837Z,135.10
2022-11-15T20:36:34.038Z,132.00
2022-11-15T20:39:02.227Z,122.90
2022-11-15T20:41:30.422Z,102.10
2022-11-15T20:43:58.730Z,89.30
2022-11-15T20:46:26.869Z,85.60
2022-11-15T20:48:55.033Z,82.10
2022-11-15T20:51:23.240Z,87.00
2022-11-15T20:53:51.404Z,93.60
2022-11-15T20:56:21.621Z,109.90
2022-11-15T20:58:50.784Z,132.60
2022-11-15T21:01:24.875Z,148.30
2022-11-15T21:03:57.222Z,156.70
2022-11-15T21:06:26.579Z,148.20
2022-11-15T21:09:14.115Z,130.90
2022-11-15T21:12:00.932Z,101.70
2022-11-15T21:14:31.507Z,104.60
2022-11-15T21:16:59.629Z,90.40
2022-11-15T21:19:34.035Z,91.30
2022-11-15T21:22:06.198Z,84.70
2022-11-15T21:24:34.315Z,85.30
2022-11-15T21:27:02.433Z,76.00
2022-11-15T21:29:40.154Z,82.50
2022-11-15T21:32:09.408Z,78.20
2022-11-15T21:34:38.219Z,75.90
2022-11-15T21:37:07.096Z,76.20
2022-11-15T21:39:35.342Z,71.90
2022-11-15T21:42:03.896Z,75.40
2022-11-15T21:44:32.342Z,76.70
2022-11-15T21:47:00.523Z,86.20
2022-11-15T21:49:28.740Z,99.40
2022-11-15T21:51:56.941Z,91.20
2022-11-15T21:54:25.003Z,87.40
2022-11-15T21:56:53.209Z,85.80
2022-11-15T21:59:21.294Z,87.40
2022-11-15T22:02:08.087Z,81.30
2022-11-15T22:04:36.198Z,73.00
2022-11-15T22:07:04.473Z,85.90
2022-11-15T22:09:32.705Z,83.00
2022-11-15T22:12:00.944Z,79.90
2022-11-15T22:14:29.183Z,79.20
2022-11-15T22:16:57.303Z,74.40
2022-11-15T22:19:25.452Z,74.10
2022-11-15T22:21:53.714Z,75.10
2022-11-15T22:24:22.455Z,72.90
2022-11-15T22:26:50.625Z,73.60
2022-11-15T22:29:18.739Z,80.10
2022-11-15T22:31:46.882Z,72.30
2022-11-15T22:34:15.076Z,82.50
2022-11-15T22:37:05.761Z,75.90
2022-11-15T22:39:33.685Z,72.70
2022-11-15T22:42:01.852Z,73.80
2022-11-15T22:44:30.004Z,69.40
2022-11-15T22:46:58.143Z,74.50
2022-11-15T22:49:26.297Z,83.30
2022-11-15T22:51:54.416Z,72.20
2022-11-15T22:54:22.599Z,69.80
2022-11-15T22:56:50.791Z,65.40
2022-11-15T22:59:18.955Z,65.00
2022-11-15T23:01:47.199Z,66.90
2022-11-15T23:04:15.446Z,71.80
2022-11-15T23:06:43.625Z,67.30
2022-11-15T23:09:11.854Z,62.40
2022-11-15T23:12:00.787Z,64.70
2022-11-15T23:14:29.274Z,61.90
2022-11-15T23:16:57.402Z,62.40
2022-11-15T23:19:25.780Z,65.90
2022-11-15T23:22:12.361Z,73.10
2022-11-15T23:24:40.547Z,66.80
2022-11-15T23:27:08.826Z,61.80
2022-11-15T23:29:57.589Z,58.40
2022-11-15T23:32:44.422Z,60.40
2022-11-15T23:35:12.695Z,67.20
2022-11-15T23:37:40.964Z,60.60
2022-11-15T23:40:10.168Z,68.80
2022-11-15T23:42:38.404Z,66.10
2022-11-15T23:45:07.464Z,70.50
2022-11-15T23:47:35.683Z,68.30
2022-11-15T23:50:04.308Z,72.50
2022-11-15T23:52:32.559Z,69.90
2022-11-15T23:55:00.785Z,75.00
2022-11-15T23:57:28.885Z,72.20
